Time;durP1;ratioP1;P1;durP2;ratioP2;P2;SDS_P1;SDS_P2;PMS_P1;PMS_P2;Temp;Humidity;BMP_temperature;BMP_pressure;BME280_temperature;BME280_humidity;BME280_pressure;Samples;Min_cycle;Max_cycle;Signal;HPM_P1;HPM_P2
2022/01/26 00:05:54;;;;;;;;;;;-2.10;99.90;;;;;;4177456;28;20454;-49
2022/01/26 00:07:56;;;;;;;;;;;-2.30;99.90;;;;;;4175177;28;20432;-49
2022/01/26 00:09:58;;;;;;;;;;;-2.30;99.90;;;;;;4177931;28;19925;-51
2022/01/26 00:12:00;;;;;;;;;;;-2.20;99.90;;;;;;4177551;28;19932;-50
2022/01/26 00:14:03;;;;;;;;;;;-2.20;99.90;;;;;;4175530;28;19928;-47
2022/01/26 00:16:09;;;;;;;;;;;-2.20;99.90;;;;;;4178377;28;19928;-48
2022/01/26 00:18:13;;;;;;;;;;;-2.20;99.90;;;;;;4173630;28;19925;-48
2022/01/26 00:20:27;;;;;;;;;;;-2.10;99.90;;;;;;4175987;28;20300;-47
2022/01/26 00:22:58;;;;;;;;;;;-2.10;99.90;;;;;;4177567;28;20183;-49
2022/01/26 00:25:18;;;;;;;;;;;-2.20;99.90;;;;;;4176529;28;20356;-48
2022/01/26 00:27:48;;;;;;;;;;;-2.20;99.90;;;;;;4176482;28;19929;-49
2022/01/26 00:30:01;;;;;;;;;;;-2.30;99.90;;;;;;4169580;28;19955;-51
2022/01/26 00:38:58;;;;;;;;;;;-2.50;99.90;;;;;;4169303;28;19972;-48
2022/01/26 00:41:07;;;;;;;;;;;-2.40;99.90;;;;;;4178071;28;19925;-48
2022/01/26 00:43:21;;;;;;;;;;;-2.50;99.90;;;;;;4176732;28;19925;-48
2022/01/26 00:45:27;;;;;;;;;;;-2.40;99.90;;;;;;4176307;28;20583;-47
2022/01/26 00:47:29;;;;;;;;;;;-2.40;99.90;;;;;;4154191;28;19928;-48
2022/01/26 00:49:31;;;;;;;;;;;-2.40;99.90;;;;;;4177340;28;19932;-50
2022/01/26 00:51:33;;;;;;;;;;;-2.40;99.90;;;;;;4160246;28;20424;-50
2022/01/26 00:53:40;;;;;;;;;;;-2.30;99.90;;;;;;4177008;28;19933;-49
2022/01/26 00:55:42;;;;;;;;;;;-2.30;99.90;;;;;;4174799;28;19925;-48
2022/01/26 00:57:44;;;;;;;;;;;-2.40;99.90;;;;;;4175239;28;19943;-47
2022/01/26 00:59:46;;;;;;;;;;;-2.50;99.90;;;;;;4177008;28;19979;-49
2022/01/26 01:01:48;;;;;;;;;;;-2.50;99.90;;;;;;4170385;28;19995;-49
2022/01/26 01:03:51;;;;;;;;;;;-2.40;99.90;;;;;;4174312;28;19924;-49
2022/01/26 01:06:03;;;;;;;;;;;-2.40;99.90;;;;;;4176527;28;19925;-50
2022/01/26 01:08:11;;;;;;;;;;;-2.50;99.90;;;;;;4172719;28;19925;-51
2022/01/26 01:10:16;;;;;;;;;;;-2.60;99.90;;;;;;4176145;28;19983;-50
2022/01/26 01:12:18;;;;;;;;;;;-2.60;99.90;;;;;;4175315;28;19925;-49
2022/01/26 01:14:20;;;;;;;;;;;-2.40;99.90;;;;;;4177111;28;19929;-49
2022/01/26 01:16:40;;;;;;;;;;;-2.60;99.90;;;;;;4176446;28;20288;-51
2022/01/26 01:18:49;;;;;;;;;;;-2.60;99.90;;;;;;4174335;28;19979;-48
2022/01/26 01:29:55;;;;;;;;;;;-2.60;99.90;;;;;;4175541;28;19936;-50
2022/01/26 01:32:00;;;;;;;;;;;-2.60;99.90;;;;;;4175046;28;19932;-51
2022/01/26 01:34:02;;;;;;;;;;;-2.70;99.90;;;;;;4176277;28;19929;-51
2022/01/26 01:36:06;;;;;;;;;;;-2.50;99.90;;;;;;4176593;28;19925;-49
2022/01/26 01:38:16;;;;;;;;;;;-2.50;99.90;;;;;;4175852;28;20152;-48
2022/01/26 01:40:18;;;;;;;;;;;-2.60;99.90;;;;;;4173196;28;20015;-50
2022/01/26 01:42:20;;;;;;;;;;;-2.40;99.90;;;;;;4165354;28;20020;-51
2022/01/26 01:44:22;;;;;;;;;;;-2.40;99.90;;;;;;4174768;28;19925;-50
2022/01/26 01:46:24;;;;;;;;;;;-2.60;99.90;;;;;;4174584;28;19925;-51
2022/01/26 01:48:29;;;;;;;;;;;-2.50;99.90;;;;;;4177025;28;20055;-51
2022/01/26 01:50:37;;;;;;;;;;;-2.50;99.90;;;;;;4175512;28;19929;-51
2022/01/26 01:52:39;;;;;;;;;;;-2.60;99.90;;;;;;4175851;28;19925;-51
2022/01/26 01:54:44;;;;;;;;;;;-2.80;99.90;;;;;;4176015;28;20293;-51
2022/01/26 01:56:54;;;;;;;;;;;-2.70;99.90;;;;;;4175321;28;19936;-49
2022/01/26 01:58:58;;;;;;;;;;;-2.80;99.90;;;;;;4156406;28;19938;-49
2022/01/26 02:01:00;;;;;;;;;;;-2.80;99.90;;;;;;4176190;28;19968;-51
2022/01/26 02:03:03;;;;;;;;;;;-2.80;99.90;;;;;;4174153;28;19971;-48
2022/01/26 02:05:05;;;;;;;;;;;-2.90;99.90;;;;;;4176393;28;19929;-49
2022/01/26 02:07:07;;;;;;;;;;;-3.00;99.90;;;;;;4172855;28;19932;-50
2022/01/26 02:09:09;;;;;;;;;;;-2.90;99.90;;;;;;4170274;28;19924;-49
2022/01/26 02:11:13;;;;;;;;;;;-2.90;99.90;;;;;;4176670;28;19925;-52
2022/01/26 02:13:18;;;;;;;;;;;-2.80;99.90;;;;;;4175337;28;19959;-49
2022/01/26 02:15:26;;;;;;;;;;;-2.90;99.90;;;;;;4174802;28;19971;-51
2022/01/26 02:18:04;;;;;;;;;;;-2.80;99.90;;;;;;4173146;28;20024;-50
2022/01/26 02:50:52;;;;;;;;;;;-2.90;99.90;;;;;;4178732;28;19975;-49
2022/01/26 02:59:56;;;;;;;;;;;-2.90;99.90;;;;;;4178230;28;20462;-49
2022/01/26 03:02:02;;;;;;;;;;;-2.80;99.90;;;;;;4173784;28;19932;-51
2022/01/26 03:04:14;;;;;;;;;;;-2.80;99.90;;;;;;4177952;28;19925;-51
2022/01/26 03:06:22;;;;;;;;;;;-2.80;99.90;;;;;;4177811;28;19931;-47
2022/01/26 03:08:32;;;;;;;;;;;-2.90;99.90;;;;;;4176525;28;19966;-48
2022/01/26 03:10:49;;;;;;;;;;;-2.90;99.90;;;;;;4177813;28;19925;-50
2022/01/26 03:12:57;;;;;;;;;;;-2.90;99.90;;;;;;4163451;28;19987;-47
2022/01/26 03:15:09;;;;;;;;;;;-2.90;99.90;;;;;;4178039;28;19929;-48
2022/01/26 03:17:49;;;;;;;;;;;-3.00;99.90;;;;;;4170379;28;19933;-51
2022/01/26 03:19:43;;;;;;;;;;;-3.10;99.90;;;;;;4173481;28;19924;-50
2022/01/26 03:28:57;;;;;;;;;;;-3.00;99.90;;;;;;4165261;28;20514;-50
2022/01/26 03:33:47;;;;;;;;;;;-2.90;99.90;;;;;;4128685;28;19925;-47
2022/01/26 03:35:49;;;;;;;;;;;-2.90;99.90;;;;;;4177815;28;19940;-51
2022/01/26 03:37:54;;;;;;;;;;;-2.80;99.90;;;;;;4177454;28;20466;-48
2022/01/26 03:39:56;;;;;;;;;;;-2.70;99.90;;;;;;4178826;28;19968;-49
2022/01/26 03:42:09;;;;;;;;;;;-2.70;99.90;;;;;;4176322;28;19960;-51
2022/01/26 03:44:12;;;;;;;;;;;-2.60;99.90;;;;;;4165161;28;19929;-51
2022/01/26 03:46:14;;;;;;;;;;;-2.70;99.90;;;;;;4178368;28;19935;-50
2022/01/26 03:48:16;;;;;;;;;;;-2.80;99.90;;;;;;4177907;28;19932;-49
2022/01/26 03:50:18;;;;;;;;;;;-2.80;99.90;;;;;;4179024;28;19928;-49
2022/01/26 03:52:19;;;;;;;;;;;-2.70;99.90;;;;;;4176427;28;20387;-51
2022/01/26 03:54:22;;;;;;;;;;;-2.60;99.90;;;;;;4175784;28;20015;-52
2022/01/26 03:56:24;;;;;;;;;;;-2.60;99.90;;;;;;4178241;28;19925;-49
2022/01/26 03:58:26;;;;;;;;;;;-2.50;99.90;;;;;;4176741;28;20316;-52
2022/01/26 04:00:28;;;;;;;;;;;-2.50;99.90;;;;;;4176612;28;19985;-48
2022/01/26 04:02:30;;;;;;;;;;;-2.60;99.90;;;;;;4177904;28;20390;-47
2022/01/26 04:04:38;;;;;;;;;;;-2.70;99.90;;;;;;4177145;28;20023;-49
2022/01/26 04:06:41;;;;;;;;;;;-2.60;99.90;;;;;;4177334;28;19963;-50
2022/01/26 04:08:44;;;;;;;;;;;-2.60;99.90;;;;;;4178408;28;20332;-49
2022/01/26 04:12:57;;;;;;;;;;;-2.60;99.90;;;;;;4157796;28;20463;-52
2022/01/26 04:15:13;;;;;;;;;;;-2.70;99.90;;;;;;4178546;28;19932;-51
2022/01/26 04:17:15;;;;;;;;;;;-2.90;99.90;;;;;;4172834;28;19932;-49
2022/01/26 04:19:18;;;;;;;;;;;-3.00;99.90;;;;;;4172007;28;20286;-48
2022/01/26 04:25:59;;;;;;;;;;;-2.80;99.90;;;;;;4154199;28;20545;-48
2022/01/26 04:28:06;;;;;;;;;;;-2.80;99.90;;;;;;4175557;28;19925;-49
2022/01/26 04:30:08;;;;;;;;;;;-2.80;99.90;;;;;;4177425;28;20019;-49
2022/01/26 04:32:13;;;;;;;;;;;-2.80;99.90;;;;;;4177453;28;19976;-51
2022/01/26 04:34:15;;;;;;;;;;;-2.80;99.90;;;;;;4177696;28;19956;-51
2022/01/26 04:36:25;;;;;;;;;;;-2.80;99.90;;;;;;4176062;28;19978;-48
2022/01/26 04:38:42;;;;;;;;;;;-3.00;99.90;;;;;;4176546;28;19967;-51
2022/01/26 04:41:05;;;;;;;;;;;-3.00;99.90;;;;;;4176033;28;19924;-49
2022/01/26 04:43:15;;;;;;;;;;;-3.00;99.90;;;;;;4171712;28;19948;-50
2022/01/26 04:45:17;;;;;;;;;;;-3.00;99.90;;;;;;4167717;28;19925;-49
2022/01/26 04:47:19;;;;;;;;;;;-2.90;99.90;;;;;;4174878;28;20455;-49
2022/01/26 04:49:21;;;;;;;;;;;-2.90;99.90;;;;;;4176176;28;19925;-48
2022/01/26 04:51:23;;;;;;;;;;;-2.90;99.90;;;;;;4173686;28;19928;-50
2022/01/26 04:53:25;;;;;;;;;;;-2.80;99.90;;;;;;4169840;28;19929;-51
2022/01/26 04:55:27;;;;;;;;;;;-2.80;99.90;;;;;;4167836;28;20020;-51
2022/01/26 04:57:29;;;;;;;;;;;-2.70;99.90;;;;;;4176423;28;19968;-50
2022/01/26 04:59:31;;;;;;;;;;;-2.80;99.90;;;;;;4173712;28;19933;-51
2022/01/26 05:01:33;;;;;;;;;;;-2.80;99.90;;;;;;4176444;28;19934;-49
2022/01/26 05:03:35;;;;;;;;;;;-2.70;99.90;;;;;;4176712;28;19964;-48
2022/01/26 05:05:37;;;;;;;;;;;-2.70;99.90;;;;;;4176148;28;19986;-49
2022/01/26 05:07:39;;;;;;;;;;;-2.70;99.90;;;;;;4173698;28;19929;-49
2022/01/26 05:09:41;;;;;;;;;;;-2.70;99.90;;;;;;4176514;28;20896;-49
2022/01/26 05:11:47;;;;;;;;;;;-2.70;99.90;;;;;;4175623;28;19928;-49
2022/01/26 05:13:48;;;;;;;;;;;-2.80;99.90;;;;;;4177476;28;20561;-51
2022/01/26 05:15:50;;;;;;;;;;;-2.70;99.90;;;;;;4175596;28;20135;-47
2022/01/26 05:17:52;;;;;;;;;;;-2.70;99.90;;;;;;4173610;28;19933;-50
2022/01/26 05:19:57;;;;;;;;;;;-2.70;99.90;;;;;;4178451;28;20395;-50
2022/01/26 05:21:59;;;;;;;;;;;-2.70;99.90;;;;;;4174596;28;20007;-49
2022/01/26 05:24:02;;;;;;;;;;;-2.70;99.90;;;;;;4174224;28;19972;-49
2022/01/26 05:26:04;;;;;;;;;;;-2.70;99.90;;;;;;4177895;28;19928;-48
2022/01/26 05:28:06;;;;;;;;;;;-2.70;99.90;;;;;;4168329;28;19929;-50
2022/01/26 05:30:08;;;;;;;;;;;-2.70;99.90;;;;;;4166451;28;19924;-51
2022/01/26 05:32:10;;;;;;;;;;;-2.70;99.90;;;;;;4178530;28;19929;-48
2022/01/26 05:34:12;;;;;;;;;;;-2.70;99.90;;;;;;4174338;28;20323;-49
2022/01/26 05:36:14;;;;;;;;;;;-2.60;99.90;;;;;;4176899;28;19932;-51
2022/01/26 05:38:16;;;;;;;;;;;-2.60;99.90;;;;;;4171057;28;20392;-52
2022/01/26 05:40:18;;;;;;;;;;;-2.60;99.90;;;;;;4175525;28;19925;-48
2022/01/26 05:42:20;;;;;;;;;;;-2.70;99.90;;;;;;4175529;28;19959;-49
2022/01/26 05:44:22;;;;;;;;;;;-2.60;99.90;;;;;;4175717;28;19979;-51
2022/01/26 05:46:35;;;;;;;;;;;-2.60;99.90;;;;;;4175287;28;19928;-48
2022/01/26 05:48:43;;;;;;;;;;;-2.60;99.90;;;;;;4174429;28;19933;-49
2022/01/26 05:50:53;;;;;;;;;;;-2.70;99.90;;;;;;4177141;28;19981;-49
2022/01/26 05:52:55;;;;;;;;;;;-2.70;99.90;;;;;;4156161;28;19968;-48
2022/01/26 05:54:56;;;;;;;;;;;-2.70;99.90;;;;;;4166602;28;19932;-48
2022/01/26 05:56:58;;;;;;;;;;;-2.60;99.90;;;;;;4177570;28;19979;-52
2022/01/26 05:59:01;;;;;;;;;;;-2.60;99.90;;;;;;4174183;28;20369;-49
2022/01/26 06:01:04;;;;;;;;;;;-2.70;99.90;;;;;;4176902;28;20419;-50
2022/01/26 06:03:06;;;;;;;;;;;-2.70;99.90;;;;;;4180656;28;20391;-49
2022/01/26 06:05:08;;;;;;;;;;;-2.70;99.90;;;;;;4175569;28;19956;-50
2022/01/26 06:07:10;;;;;;;;;;;-2.70;99.90;;;;;;4176069;28;19998;-48
2022/01/26 06:09:12;;;;;;;;;;;-2.70;99.90;;;;;;4177052;28;19983;-50
2022/01/26 06:11:14;;;;;;;;;;;-2.60;99.90;;;;;;4169028;28;20325;-49
2022/01/26 06:13:16;;;;;;;;;;;-2.60;99.90;;;;;;4171978;28;20014;-51
2022/01/26 06:15:19;;;;;;;;;;;-2.50;99.90;;;;;;4175684;28;20308;-50
2022/01/26 06:17:21;;;;;;;;;;;-2.50;99.90;;;;;;4169900;28;19983;-50
2022/01/26 06:19:23;;;;;;;;;;;-2.60;99.90;;;;;;4172240;28;19951;-48
2022/01/26 06:21:25;;;;;;;;;;;-2.60;99.90;;;;;;4176715;28;19963;-51
2022/01/26 06:23:27;;;;;;;;;;;-2.60;99.90;;;;;;4175372;28;20384;-47
2022/01/26 06:25:30;;;;;;;;;;;-2.60;99.90;;;;;;4176306;28;19986;-50
2022/01/26 06:27:32;;;;;;;;;;;-2.60;99.90;;;;;;4176251;28;19978;-49
2022/01/26 06:29:34;;;;;;;;;;;-2.60;99.90;;;;;;4173512;28;19936;-47
2022/01/26 06:31:39;;;;;;;;;;;-2.70;99.90;;;;;;4176423;28;19936;-48
2022/01/26 06:33:42;;;;;;;;;;;-2.70;99.90;;;;;;4176135;28;20375;-47
2022/01/26 06:35:44;;;;;;;;;;;-2.70;99.90;;;;;;4157127;28;20352;-48
2022/01/26 06:37:46;;;;;;;;;;;-2.60;99.90;;;;;;4144283;28;20020;-48
2022/01/26 06:39:48;;;;;;;;;;;-2.60;99.90;;;;;;4176315;28;20391;-51
2022/01/26 06:41:54;;;;;;;;;;;-2.50;99.90;;;;;;4173309;28;19937;-48
2022/01/26 06:44:14;;;;;;;;;;;-2.60;99.90;;;;;;4163935;28;19936;-50
2022/01/26 06:46:25;;;;;;;;;;;-2.60;99.90;;;;;;4162955;28;19933;-49
2022/01/26 06:50:32;;;;;;;;;;;-2.70;99.90;;;;;;4176237;28;19968;-47
2022/01/26 06:52:34;;;;;;;;;;;-2.70;99.90;;;;;;4166527;28;20043;-49
2022/01/26 06:54:36;;;;;;;;;;;-2.60;99.90;;;;;;4170055;28;19925;-50
2022/01/26 06:56:38;;;;;;;;;;;-2.60;99.90;;;;;;4163348;28;20290;-50
2022/01/26 06:58:40;;;;;;;;;;;-2.60;99.90;;;;;;4176895;28;19955;-49
2022/01/26 07:00:42;;;;;;;;;;;-2.70;99.90;;;;;;4169798;28;19925;-49
2022/01/26 07:02:44;;;;;;;;;;;-2.70;99.90;;;;;;4173263;28;19925;-50
2022/01/26 07:04:46;;;;;;;;;;;-2.70;99.90;;;;;;4176976;28;19925;-49
2022/01/26 07:06:48;;;;;;;;;;;-2.70;99.90;;;;;;4176863;28;20286;-47
2022/01/26 07:08:50;;;;;;;;;;;-2.70;99.90;;;;;;4177342;28;19929;-49
2022/01/26 07:10:53;;;;;;;;;;;-2.60;99.90;;;;;;4177070;28;19978;-48
2022/01/26 07:12:55;;;;;;;;;;;-2.60;99.90;;;;;;4174269;28;19942;-50
2022/01/26 07:20:12;;;;;;;;;;;-2.60;99.90;;;;;;4166647;28;19964;-50
2022/01/26 07:22:17;;;;;;;;;;;-2.50;99.90;;;;;;4167314;28;19929;-49
2022/01/26 07:24:20;;;;;;;;;;;-2.50;99.90;;;;;;4163074;28;19948;-51
2022/01/26 07:26:24;;;;;;;;;;;-2.50;99.90;;;;;;4164322;28;20405;-50
2022/01/26 07:28:29;;;;;;;;;;;-2.40;99.90;;;;;;4168367;28;20428;-48
2022/01/26 07:30:34;;;;;;;;;;;-2.40;99.90;;;;;;4176300;28;19935;-48
2022/01/26 07:32:37;;;;;;;;;;;-2.30;99.90;;;;;;4178617;28;19929;-50
2022/01/26 07:34:41;;;;;;;;;;;-2.30;99.90;;;;;;4177162;28;19932;-48
2022/01/26 07:36:44;;;;;;;;;;;-2.30;99.90;;;;;;4178124;28;20359;-47
2022/01/26 07:38:50;;;;;;;;;;;-2.40;99.90;;;;;;4177067;28;19925;-46
2022/01/26 07:40:52;;;;;;;;;;;-2.50;99.90;;;;;;4177175;28;19933;-48
2022/01/26 07:42:54;;;;;;;;;;;-2.70;99.90;;;;;;4178014;28;20363;-46
2022/01/26 07:44:56;;;;;;;;;;;-2.70;99.90;;;;;;4177712;28;19995;-45
2022/01/26 07:46:58;;;;;;;;;;;-2.60;99.90;;;;;;4175572;28;19925;-47
2022/01/26 07:49:00;;;;;;;;;;;-2.50;99.90;;;;;;4176896;28;19928;-51
2022/01/26 07:51:03;;;;;;;;;;;-2.50;99.90;;;;;;4176595;28;19979;-50
2022/01/26 07:53:04;;;;;;;;;;;-2.40;99.90;;;;;;4177897;28;19928;-48
2022/01/26 07:55:08;;;;;;;;;;;-2.40;99.90;;;;;;4178529;28;19925;-49
2022/01/26 07:57:11;;;;;;;;;;;-2.40;99.90;;;;;;4177949;28;19925;-50
2022/01/26 07:59:13;;;;;;;;;;;-2.30;99.90;;;;;;4176983;28;19939;-49
2022/01/26 08:01:15;;;;;;;;;;;-2.20;99.90;;;;;;4167419;28;19925;-49
2022/01/26 08:03:17;;;;;;;;;;;-2.00;99.90;;;;;;4177205;28;19925;-47
2022/01/26 08:05:21;;;;;;;;;;;-1.80;99.90;;;;;;4177277;28;19978;-50
2022/01/26 08:07:23;;;;;;;;;;;-1.70;99.90;;;;;;4178863;28;19936;-49
2022/01/26 08:09:25;;;;;;;;;;;-1.70;99.90;;;;;;4175562;28;19928;-49
2022/01/26 08:11:27;;;;;;;;;;;-1.60;99.90;;;;;;4169888;28;20320;-48
2022/01/26 08:13:29;;;;;;;;;;;-1.60;99.90;;;;;;4169554;28;19929;-49
2022/01/26 08:15:31;;;;;;;;;;;-1.60;99.90;;;;;;4177095;28;19973;-49
2022/01/26 08:17:34;;;;;;;;;;;-1.40;99.90;;;;;;4175334;28;19933;-50
2022/01/26 08:19:36;;;;;;;;;;;-1.40;99.90;;;;;;4178720;28;19952;-48
2022/01/26 08:21:38;;;;;;;;;;;-1.30;99.90;;;;;;4178230;28;19960;-49
2022/01/26 08:23:43;;;;;;;;;;;-1.10;99.90;;;;;;4154141;28;19937;-51
2022/01/26 08:25:45;;;;;;;;;;;-1.00;99.90;;;;;;4178271;28;19928;-50
2022/01/26 08:27:53;;;;;;;;;;;-0.90;99.90;;;;;;4177831;28;20020;-47
2022/01/26 08:30:04;;;;;;;;;;;-0.80;99.90;;;;;;4176748;28;19936;-47
2022/01/26 08:32:06;;;;;;;;;;;-0.80;99.90;;;;;;4165224;28;19967;-47
2022/01/26 08:34:08;;;;;;;;;;;-0.70;99.90;;;;;;4175178;28;20458;-48
2022/01/26 08:36:10;;;;;;;;;;;-0.70;99.90;;;;;;4178028;28;19925;-50
2022/01/26 08:38:12;;;;;;;;;;;-0.70;99.90;;;;;;4162591;28;20020;-49
2022/01/26 08:40:14;;;;;;;;;;;-0.60;99.90;;;;;;4176740;28;19960;-47
2022/01/26 08:42:16;;;;;;;;;;;-0.60;99.90;;;;;;4176187;28;19925;-51
2022/01/26 08:44:18;;;;;;;;;;;-0.60;99.90;;;;;;4177403;28;20366;-50
2022/01/26 08:46:20;;;;;;;;;;;-0.60;99.90;;;;;;4169593;28;19932;-49
2022/01/26 08:48:22;;;;;;;;;;;-0.50;99.90;;;;;;4165516;28;20028;-50
2022/01/26 08:50:24;;;;;;;;;;;-0.30;99.90;;;;;;4178270;28;19931;-49
2022/01/26 08:52:26;;;;;;;;;;;-0.10;99.90;;;;;;4171555;28;19949;-49
2022/01/26 08:54:28;;;;;;;;;;;0.20;99.90;;;;;;4164877;28;20011;-48
2022/01/26 08:56:30;;;;;;;;;;;0.40;99.90;;;;;;4164570;28;20416;-49
2022/01/26 08:58:32;;;;;;;;;;;0.50;99.90;;;;;;4178410;28;19933;-50
2022/01/26 09:00:35;;;;;;;;;;;0.50;99.90;;;;;;4178158;28;20627;-51
2022/01/26 09:02:51;;;;;;;;;;;0.50;99.90;;;;;;4162939;28;19929;-48
2022/01/26 09:04:53;;;;;;;;;;;0.50;99.90;;;;;;4168746;28;19968;-50
2022/01/26 09:06:57;;;;;;;;;;;0.70;99.90;;;;;;4165391;28;20420;-49
2022/01/26 09:09:05;;;;;;;;;;;0.70;99.90;;;;;;4159758;28;19960;-51
2022/01/26 09:11:08;;;;;;;;;;;0.70;99.90;;;;;;4169024;28;19970;-49
2022/01/26 09:13:10;;;;;;;;;;;0.80;99.90;;;;;;4164678;28;20345;-49
2022/01/26 09:15:13;;;;;;;;;;;0.80;99.90;;;;;;4177842;28;19952;-51
2022/01/26 09:17:15;;;;;;;;;;;1.10;99.90;;;;;;4176035;28;19960;-51
2022/01/26 09:19:27;;;;;;;;;;;1.30;99.90;;;;;;4176305;28;19932;-50
2022/01/26 09:21:29;;;;;;;;;;;1.40;99.90;;;;;;4176914;28;19925;-50
2022/01/26 09:23:31;;;;;;;;;;;1.60;99.90;;;;;;4175520;28;19928;-48
2022/01/26 09:25:33;;;;;;;;;;;1.60;99.90;;;;;;4175956;28;19991;-49
2022/01/26 09:27:36;;;;;;;;;;;1.70;99.90;;;;;;4176153;28;19929;-47
2022/01/26 09:29:38;;;;;;;;;;;2.00;99.90;;;;;;4175421;28;19947;-49
2022/01/26 09:31:40;;;;;;;;;;;2.10;99.90;;;;;;4176500;28;19932;-51
2022/01/26 09:33:42;;;;;;;;;;;2.10;99.90;;;;;;4177409;28;19932;-48
2022/01/26 09:35:44;;;;;;;;;;;2.10;99.90;;;;;;4172994;28;19933;-51
2022/01/26 09:37:48;;;;;;;;;;;2.40;99.90;;;;;;4176229;28;19932;-48
2022/01/26 09:39:50;;;;;;;;;;;2.70;99.90;;;;;;4171831;28;19932;-50
2022/01/26 09:41:52;;;;;;;;;;;2.90;99.90;;;;;;4174488;28;19935;-48
2022/01/26 09:43:55;;;;;;;;;;;3.00;99.90;;;;;;4175541;28;19936;-51
2022/01/26 09:45:57;;;;;;;;;;;3.20;99.90;;;;;;4169922;28;19935;-48
2022/01/26 09:47:59;;;;;;;;;;;3.40;99.90;;;;;;4171610;28;20024;-52
2022/01/26 09:50:08;;;;;;;;;;;3.80;99.90;;;;;;4175294;28;19986;-50
2022/01/26 09:52:17;;;;;;;;;;;3.60;99.90;;;;;;4176963;28;19929;-50
2022/01/26 09:54:19;;;;;;;;;;;3.60;99.90;;;;;;4174966;28;19947;-48
2022/01/26 09:56:21;;;;;;;;;;;3.80;99.90;;;;;;4175948;28;20397;-50
2022/01/26 09:58:23;;;;;;;;;;;4.00;99.90;;;;;;4159394;28;19936;-51
2022/01/26 10:00:25;;;;;;;;;;;4.20;99.90;;;;;;4158929;28;19925;-50
2022/01/26 10:02:28;;;;;;;;;;;4.30;99.90;;;;;;4176835;28;20379;-48
2022/01/26 10:04:34;;;;;;;;;;;4.10;99.90;;;;;;4176976;28;19955;-49
2022/01/26 10:06:40;;;;;;;;;;;4.20;99.90;;;;;;4171147;28;19936;-49
2022/01/26 10:15:49;;;;;;;;;;;5.10;99.90;;;;;;4173137;28;19932;-48
2022/01/26 10:17:58;;;;;;;;;;;5.30;99.90;;;;;;4164517;28;19951;-50
2022/01/26 10:20:03;;;;;;;;;;;5.60;99.90;;;;;;4176135;28;19932;-51
2022/01/26 10:22:05;;;;;;;;;;;5.60;99.90;;;;;;4173397;28;19929;-50
2022/01/26 10:24:10;;;;;;;;;;;5.80;99.90;;;;;;4176188;28;20405;-49
2022/01/26 10:26:19;;;;;;;;;;;6.00;99.90;;;;;;4175879;28;19924;-50
2022/01/26 10:28:21;;;;;;;;;;;6.10;99.90;;;;;;4173691;28;20312;-51
2022/01/26 10:30:23;;;;;;;;;;;6.20;99.90;;;;;;4176320;28;19936;-50
2022/01/26 10:32:31;;;;;;;;;;;6.20;99.90;;;;;;4176206;28;19936;-51
2022/01/26 10:34:33;;;;;;;;;;;6.40;99.90;;;;;;4175237;28;20012;-51
2022/01/26 10:36:36;;;;;;;;;;;6.60;99.90;;;;;;4175209;28;20015;-51
2022/01/26 10:38:38;;;;;;;;;;;6.70;99.90;;;;;;4176257;28;19929;-50
2022/01/26 10:40:40;;;;;;;;;;;6.90;99.90;;;;;;4172260;28;19925;-50
2022/01/26 10:42:55;;;;;;;;;;;6.90;99.90;;;;;;4161546;28;19926;-51
2022/01/26 10:45:15;;;;;;;;;;;7.30;99.90;;;;;;4175117;28;19975;-50
2022/01/26 10:47:27;;;;;;;;;;;7.30;99.90;;;;;;4173354;28;20016;-51
2022/01/26 10:51:54;;;;;;;;;;;7.80;99.90;;;;;;4160659;28;20451;-51
2022/01/26 10:54:08;;;;;;;;;;;7.80;99.90;;;;;;4175025;28;19929;-52
2022/01/26 10:56:10;;;;;;;;;;;7.90;99.90;;;;;;4172232;28;19929;-48
2022/01/26 10:58:16;;;;;;;;;;;8.20;99.90;;;;;;4162608;28;20039;-50
2022/01/26 11:00:19;;;;;;;;;;;8.50;99.90;;;;;;4175519;28;19928;-51
2022/01/26 11:02:28;;;;;;;;;;;8.70;99.90;;;;;;4173268;28;19935;-51
2022/01/26 11:04:31;;;;;;;;;;;8.60;99.90;;;;;;4176788;28;19925;-52
2022/01/26 11:06:33;;;;;;;;;;;8.60;99.90;;;;;;4179225;28;19968;-51
2022/01/26 11:08:38;;;;;;;;;;;8.60;99.90;;;;;;4173774;28;19925;-51
2022/01/26 11:10:40;;;;;;;;;;;8.40;99.90;;;;;;4176860;28;19929;-50
2022/01/26 11:12:42;;;;;;;;;;;8.40;99.90;;;;;;4176658;28;19929;-52
2022/01/26 11:14:49;;;;;;;;;;;8.30;99.90;;;;;;4177549;28;20021;-51
2022/01/26 11:16:53;;;;;;;;;;;8.40;99.90;;;;;;4179143;28;20200;-51
2022/01/26 11:18:58;;;;;;;;;;;8.40;99.90;;;;;;4176460;28;19925;-51
2022/01/26 11:21:00;;;;;;;;;;;8.50;99.90;;;;;;4177748;28;19960;-51
2022/01/26 11:23:05;;;;;;;;;;;8.80;99.90;;;;;;4174657;28;19925;-51
2022/01/26 11:25:11;;;;;;;;;;;8.80;99.90;;;;;;4177461;28;20359;-51
2022/01/26 11:27:15;;;;;;;;;;;8.60;99.90;;;;;;4177643;28;20416;-51
2022/01/26 11:29:18;;;;;;;;;;;8.40;99.90;;;;;;4178305;28;19928;-51
2022/01/26 11:31:21;;;;;;;;;;;8.30;99.90;;;;;;4173067;28;19929;-50
2022/01/26 11:33:43;;;;;;;;;;;8.50;99.90;;;;;;4176319;28;19929;-50
2022/01/26 11:35:48;;;;;;;;;;;8.90;99.90;;;;;;4177758;28;20445;-52
2022/01/26 11:38:04;;;;;;;;;;;9.20;99.90;;;;;;4178728;28;20479;-50
2022/01/26 11:45:04;;;;;;;;;;;9.50;99.90;;;;;;4177747;28;19925;-50
2022/01/26 11:45:07;;;;;;;;;;;9.30;99.90;;;;;;4175676;28;19924;-51
2022/01/26 11:47:09;;;;;;;;;;;9.00;99.90;;;;;;4177248;28;19964;-50
2022/01/26 11:49:11;;;;;;;;;;;9.00;99.90;;;;;;4176456;28;20304;-51
2022/01/26 11:51:13;;;;;;;;;;;9.00;99.90;;;;;;4178650;28;19979;-52
2022/01/26 11:53:16;;;;;;;;;;;9.00;99.90;;;;;;4178827;28;19964;-50
2022/01/26 11:55:23;;;;;;;;;;;9.00;99.90;;;;;;4176985;28;20348;-49
2022/01/26 11:57:39;;;;;;;;;;;8.80;99.90;;;;;;4180770;28;19929;-51
2022/01/26 11:59:49;;;;;;;;;;;8.80;99.90;;;;;;4181791;28;19929;-51
2022/01/26 12:02:07;;;;;;;;;;;8.70;99.90;;;;;;4172504;28;19925;-51
2022/01/26 12:04:14;;;;;;;;;;;8.70;99.90;;;;;;4172225;28;19929;-51
2022/01/26 12:06:25;;;;;;;;;;;8.60;99.90;;;;;;4175928;28;20650;-51
2022/01/26 12:08:35;;;;;;;;;;;8.50;99.90;;;;;;4173477;28;19933;-49
2022/01/26 12:10:38;;;;;;;;;;;8.50;99.90;;;;;;4172066;28;19964;-50
2022/01/26 12:12:40;;;;;;;;;;;8.40;99.90;;;;;;4176502;28;19931;-51
2022/01/26 12:14:45;;;;;;;;;;;8.50;99.90;;;;;;4181610;28;19924;-50
2022/01/26 12:16:49;;;;;;;;;;;8.20;99.90;;;;;;4178187;28;20429;-51
2022/01/26 12:19:08;;;;;;;;;;;8.20;99.90;;;;;;4175947;28;19924;-50
2022/01/26 12:42:39;;;;;;;;;;;8.10;99.90;;;;;;4176076;28;19985;-50
2022/01/26 12:44:41;;;;;;;;;;;8.00;99.90;;;;;;4176510;28;19999;-50
2022/01/26 12:46:43;;;;;;;;;;;8.10;99.90;;;;;;4178695;28;19925;-51
2022/01/26 12:48:49;;;;;;;;;;;8.00;99.90;;;;;;4174999;28;19983;-51
2022/01/26 12:50:51;;;;;;;;;;;8.00;99.90;;;;;;4176694;28;19925;-50
2022/01/26 12:52:55;;;;;;;;;;;8.20;99.90;;;;;;4182290;28;20474;-51
2022/01/26 12:54:57;;;;;;;;;;;8.20;99.90;;;;;;4177824;28;19932;-50
2022/01/26 12:57:06;;;;;;;;;;;8.20;99.90;;;;;;4176126;28;19978;-51
2022/01/26 12:59:10;;;;;;;;;;;8.20;99.90;;;;;;4177168;28;19931;-50
2022/01/26 13:01:17;;;;;;;;;;;8.10;99.90;;;;;;4176151;28;19991;-51
2022/01/26 13:03:23;;;;;;;;;;;8.20;99.90;;;;;;4175444;28;19933;-50
2022/01/26 13:05:26;;;;;;;;;;;8.20;99.90;;;;;;4176567;28;19939;-50
2022/01/26 13:07:28;;;;;;;;;;;8.10;99.90;;;;;;4169881;28;20036;-50
2022/01/26 13:09:37;;;;;;;;;;;8.00;99.90;;;;;;4167246;28;19929;-51
2022/01/26 13:11:39;;;;;;;;;;;8.10;99.90;;;;;;4178040;28;19924;-51
2022/01/26 13:13:41;;;;;;;;;;;8.20;99.90;;;;;;4174687;28;19933;-50
2022/01/26 13:15:52;;;;;;;;;;;8.10;99.90;;;;;;4177252;28;20479;-49
2022/01/26 13:18:05;;;;;;;;;;;8.10;99.90;;;;;;4177305;28;19929;-52
2022/01/26 13:25:05;;;;;;;;;;;8.20;99.90;;;;;;4177316;28;19928;-51
2022/01/26 13:27:24;;;;;;;;;;;8.20;99.90;;;;;;4175247;28;19928;-51
2022/01/26 13:36:49;;;;;;;;;;;8.80;99.90;;;;;;4175889;28;20388;-51
2022/01/26 13:39:04;;;;;;;;;;;9.00;99.90;;;;;;4175339;28;20342;-51
2022/01/26 13:49:53;;;;;;;;;;;8.20;99.90;;;;;;4179525;28;20035;-49
2022/01/26 13:56:40;;;;;;;;;;;8.20;99.90;;;;;;4175301;28;19925;-49
2022/01/26 13:58:56;;;;;;;;;;;8.20;99.90;;;;;;4175593;28;19925;-51
2022/01/26 14:01:03;;;;;;;;;;;8.20;99.90;;;;;;4176650;28;20277;-51
2022/01/26 14:03:07;;;;;;;;;;;8.20;99.90;;;;;;4175139;28;19928;-51
2022/01/26 14:05:09;;;;;;;;;;;8.30;99.90;;;;;;4175992;28;20023;-51
2022/01/26 14:07:12;;;;;;;;;;;8.20;99.90;;;;;;4167267;28;19929;-50
2022/01/26 14:09:15;;;;;;;;;;;8.20;99.90;;;;;;4175205;28;20662;-51
2022/01/26 14:11:17;;;;;;;;;;;8.30;99.90;;;;;;4176765;28;19985;-51
2022/01/26 14:13:22;;;;;;;;;;;8.20;99.90;;;;;;4164807;28;19928;-51
2022/01/26 14:15:36;;;;;;;;;;;8.50;99.90;;;;;;4172502;28;19929;-51
2022/01/26 14:20:41;;;;;;;;;;;8.50;99.90;;;;;;4175247;28;20422;-51
2022/01/26 14:26:18;;;;;;;;;;;8.60;99.90;;;;;;4163684;28;19971;-50
2022/01/26 14:28:23;;;;;;;;;;;8.70;99.90;;;;;;4175021;28;19936;-50
2022/01/26 14:35:31;;;;;;;;;;;8.90;99.90;;;;;;4176246;28;19932;-48
2022/01/26 14:51:49;;;;;;;;;;;9.10;99.90;;;;;;4179732;28;20307;-52
2022/01/26 14:55:57;;;;;;;;;;;9.20;99.90;;;;;;4173629;28;19964;-50
2022/01/26 15:50:19;;;;;;;;;;;8.00;99.90;;;;;;4177378;28;19960;-51
2022/01/26 15:52:46;;;;;;;;;;;8.00;99.90;;;;;;4176828;28;19925;-51